sensor_id;sensor_type;location;lat;lon;timestamp;P1;durP1;ratioP1;P2;durP2;ratioP2
7475;SDS011;3779;49.216;8.650;2023-03-30T00:00:31;4.47;;;2.57;;
7475;SDS011;3779;49.216;8.650;2023-03-30T00:03:17;5.03;;;2.53;;
7475;SDS011;3779;49.216;8.650;2023-03-30T00:06:07;3.83;;;2.60;;
7475;SDS011;3779;49.216;8.650;2023-03-30T00:08:53;5.00;;;2.83;;
7475;SDS011;3779;49.216;8.650;2023-03-30T00:11:42;7.10;;;2.53;;
7475;SDS011;3779;49.216;8.650;2023-03-30T00:14:29;3.97;;;2.70;;
7475;SDS011;3779;49.216;8.650;2023-03-30T00:17:15;7.37;;;2.63;;
7475;SDS011;3779;49.216;8.650;2023-03-30T00:20:01;2.93;;;2.50;;
7475;SDS011;3779;49.216;8.650;2023-03-30T00:22:53;4.17;;;2.93;;
7475;SDS011;3779;49.216;8.650;2023-03-30T00:25:40;7.47;;;2.73;;
7475;SDS011;3779;49.216;8.650;2023-03-30T00:28:27;3.47;;;2.60;;
7475;SDS011;3779;49.216;8.650;2023-03-30T00:31:16;4.60;;;3.20;;
7475;SDS011;3779;49.216;8.650;2023-03-30T00:34:02;6.10;;;2.90;;
7475;SDS011;3779;49.216;8.650;2023-03-30T00:36:48;6.30;;;2.70;;
7475;SDS011;3779;49.216;8.650;2023-03-30T00:39:37;3.40;;;2.37;;
7475;SDS011;3779;49.216;8.650;2023-03-30T00:42:23;3.60;;;2.70;;
7475;SDS011;3779;49.216;8.650;2023-03-30T00:45:15;7.57;;;2.60;;
7475;SDS011;3779;49.216;8.650;2023-03-30T00:48:16;5.03;;;2.63;;
7475;SDS011;3779;49.216;8.650;2023-03-30T00:51:09;3.90;;;2.63;;
7475;SDS011;3779;49.216;8.650;2023-03-30T00:53:58;6.40;;;2.50;;
7475;SDS011;3779;49.216;8.650;2023-03-30T00:56:51;6.03;;;2.77;;
7475;SDS011;3779;49.216;8.650;2023-03-30T00:59:37;7.03;;;2.60;;
7475;SDS011;3779;49.216;8.650;2023-03-30T01:02:24;3.47;;;2.47;;
7475;SDS011;3779;49.216;8.650;2023-03-30T01:05:12;5.23;;;2.80;;
7475;SDS011;3779;49.216;8.650;2023-03-30T01:07:58;9.67;;;2.43;;
7475;SDS011;3779;49.216;8.650;2023-03-30T01:10:45;5.47;;;2.70;;
7475;SDS011;3779;49.216;8.650;2023-03-30T01:13:33;5.07;;;2.80;;
7475;SDS011;3779;49.216;8.650;2023-03-30T01:19:36;6.30;;;2.53;;
7475;SDS011;3779;49.216;8.650;2023-03-30T01:28:43;4.23;;;2.57;;
7475;SDS011;3779;49.216;8.650;2023-03-30T01:50:37;4.23;;;2.67;;
7475;SDS011;3779;49.216;8.650;2023-03-30T01:53:34;4.67;;;2.77;;
7475;SDS011;3779;49.216;8.650;2023-03-30T01:56:32;4.87;;;3.07;;
7475;SDS011;3779;49.216;8.650;2023-03-30T01:59:40;4.33;;;2.87;;
7475;SDS011;3779;49.216;8.650;2023-03-30T02:02:27;5.33;;;2.23;;
7475;SDS011;3779;49.216;8.650;2023-03-30T02:05:21;3.87;;;2.57;;
7475;SDS011;3779;49.216;8.650;2023-03-30T02:08:11;3.07;;;2.30;;
7475;SDS011;3779;49.216;8.650;2023-03-30T02:11:01;5.27;;;2.70;;
7475;SDS011;3779;49.216;8.650;2023-03-30T02:13:48;6.60;;;2.63;;
7475;SDS011;3779;49.216;8.650;2023-03-30T02:16:40;7.23;;;2.53;;
7475;SDS011;3779;49.216;8.650;2023-03-30T02:19:33;4.47;;;2.50;;
7475;SDS011;3779;49.216;8.650;2023-03-30T02:22:19;7.47;;;2.63;;
7475;SDS011;3779;49.216;8.650;2023-03-30T02:25:05;8.23;;;3.10;;
7475;SDS011;3779;49.216;8.650;2023-03-30T02:27:52;8.53;;;3.07;;
7475;SDS011;3779;49.216;8.650;2023-03-30T02:30:40;7.37;;;2.87;;
7475;SDS011;3779;49.216;8.650;2023-03-30T02:33:44;5.63;;;2.70;;
7475;SDS011;3779;49.216;8.650;2023-03-30T02:39:57;5.17;;;2.70;;
7475;SDS011;3779;49.216;8.650;2023-03-30T02:46:28;10.40;;;2.93;;
7475;SDS011;3779;49.216;8.650;2023-03-30T02:53:25;9.47;;;3.20;;
7475;SDS011;3779;49.216;8.650;2023-03-30T02:56:22;7.10;;;2.60;;
7475;SDS011;3779;49.216;8.650;2023-03-30T02:59:19;8.63;;;3.03;;
7475;SDS011;3779;49.216;8.650;2023-03-30T03:02:16;6.37;;;2.90;;
7475;SDS011;3779;49.216;8.650;2023-03-30T03:05:17;8.53;;;3.20;;
7475;SDS011;3779;49.216;8.650;2023-03-30T03:08:16;12.00;;;3.40;;
7475;SDS011;3779;49.216;8.650;2023-03-30T03:11:05;8.60;;;2.87;;
7475;SDS011;3779;49.216;8.650;2023-03-30T03:13:52;7.03;;;2.80;;
7475;SDS011;3779;49.216;8.650;2023-03-30T03:16:40;7.20;;;2.77;;
7475;SDS011;3779;49.216;8.650;2023-03-30T03:19:32;9.33;;;3.10;;
7475;SDS011;3779;49.216;8.650;2023-03-30T03:22:19;6.77;;;2.70;;
7475;SDS011;3779;49.216;8.650;2023-03-30T03:25:05;7.47;;;3.30;;
7475;SDS011;3779;49.216;8.650;2023-03-30T03:28:22;8.90;;;3.27;;
7475;SDS011;3779;49.216;8.650;2023-03-30T03:31:11;7.80;;;2.87;;
7475;SDS011;3779;49.216;8.650;2023-03-30T03:33:59;9.70;;;3.17;;
7475;SDS011;3779;49.216;8.650;2023-03-30T03:37:04;10.47;;;3.23;;
7475;SDS011;3779;49.216;8.650;2023-03-30T03:39:52;9.93;;;3.37;;
7475;SDS011;3779;49.216;8.650;2023-03-30T03:42:38;10.27;;;3.33;;
7475;SDS011;3779;49.216;8.650;2023-03-30T03:45:31;9.07;;;2.80;;
7475;SDS011;3779;49.216;8.650;2023-03-30T03:48:20;10.10;;;3.50;;
7475;SDS011;3779;49.216;8.650;2023-03-30T03:51:08;7.70;;;3.20;;
7475;SDS011;3779;49.216;8.650;2023-03-30T03:53:56;8.63;;;2.90;;
7475;SDS011;3779;49.216;8.650;2023-03-30T03:56:42;10.13;;;3.10;;
7475;SDS011;3779;49.216;8.650;2023-03-30T03:59:28;8.03;;;3.00;;
7475;SDS011;3779;49.216;8.650;2023-03-30T04:02:14;8.23;;;2.93;;
7475;SDS011;3779;49.216;8.650;2023-03-30T04:05:00;6.43;;;2.60;;
7475;SDS011;3779;49.216;8.650;2023-03-30T04:07:47;7.73;;;3.10;;
7475;SDS011;3779;49.216;8.650;2023-03-30T04:10:33;11.40;;;2.83;;
7475;SDS011;3779;49.216;8.650;2023-03-30T04:13:38;10.20;;;3.23;;
7475;SDS011;3779;49.216;8.650;2023-03-30T04:16:38;10.97;;;3.10;;
7475;SDS011;3779;49.216;8.650;2023-03-30T04:19:40;11.10;;;3.50;;
7475;SDS011;3779;49.216;8.650;2023-03-30T04:22:42;7.97;;;2.90;;
7475;SDS011;3779;49.216;8.650;2023-03-30T04:25:49;11.43;;;3.00;;
7475;SDS011;3779;49.216;8.650;2023-03-30T04:28:56;13.50;;;3.17;;
7475;SDS011;3779;49.216;8.650;2023-03-30T04:31:51;11.03;;;3.40;;
7475;SDS011;3779;49.216;8.650;2023-03-30T04:34:48;13.20;;;3.37;;
7475;SDS011;3779;49.216;8.650;2023-03-30T04:37:56;6.33;;;2.57;;
7475;SDS011;3779;49.216;8.650;2023-03-30T04:44:00;8.27;;;3.30;;
7475;SDS011;3779;49.216;8.650;2023-03-30T04:47:02;11.73;;;3.10;;
7475;SDS011;3779;49.216;8.650;2023-03-30T04:50:20;11.93;;;2.90;;
7475;SDS011;3779;49.216;8.650;2023-03-30T04:53:26;7.73;;;2.70;;
7475;SDS011;3779;49.216;8.650;2023-03-30T04:56:32;8.97;;;2.67;;
7475;SDS011;3779;49.216;8.650;2023-03-30T04:59:39;10.57;;;3.43;;
7475;SDS011;3779;49.216;8.650;2023-03-30T05:02:46;9.43;;;4.10;;
7475;SDS011;3779;49.216;8.650;2023-03-30T05:05:43;7.47;;;3.20;;
7475;SDS011;3779;49.216;8.650;2023-03-30T05:08:52;7.40;;;3.23;;
7475;SDS011;3779;49.216;8.650;2023-03-30T05:11:55;7.83;;;3.13;;
7475;SDS011;3779;49.216;8.650;2023-03-30T05:14:59;8.17;;;4.50;;
7475;SDS011;3779;49.216;8.650;2023-03-30T05:18:14;11.80;;;4.40;;
7475;SDS011;3779;49.216;8.650;2023-03-30T05:21:19;9.40;;;4.20;;
7475;SDS011;3779;49.216;8.650;2023-03-30T05:24:20;13.70;;;5.10;;
7475;SDS011;3779;49.216;8.650;2023-03-30T05:27:18;10.10;;;5.43;;
7475;SDS011;3779;49.216;8.650;2023-03-30T05:30:16;8.67;;;5.60;;
7475;SDS011;3779;49.216;8.650;2023-03-30T05:33:25;16.50;;;6.90;;
7475;SDS011;3779;49.216;8.650;2023-03-30T05:36:32;11.50;;;5.50;;
7475;SDS011;3779;49.216;8.650;2023-03-30T05:39:44;14.63;;;5.57;;
7475;SDS011;3779;49.216;8.650;2023-03-30T05:43:01;12.97;;;4.97;;
7475;SDS011;3779;49.216;8.650;2023-03-30T05:46:06;10.60;;;4.10;;
7475;SDS011;3779;49.216;8.650;2023-03-30T05:49:23;10.77;;;4.40;;
7475;SDS011;3779;49.216;8.650;2023-03-30T05:52:22;10.17;;;4.73;;
7475;SDS011;3779;49.216;8.650;2023-03-30T05:55:23;12.10;;;4.77;;
7475;SDS011;3779;49.216;8.650;2023-03-30T05:58:34;10.63;;;3.60;;
7475;SDS011;3779;49.216;8.650;2023-03-30T06:01:53;10.07;;;4.07;;
7475;SDS011;3779;49.216;8.650;2023-03-30T06:04:43;10.73;;;3.70;;
7475;SDS011;3779;49.216;8.650;2023-03-30T06:07:30;11.00;;;3.30;;
7475;SDS011;3779;49.216;8.650;2023-03-30T06:10:17;10.33;;;3.50;;
7475;SDS011;3779;49.216;8.650;2023-03-30T06:13:05;8.07;;;2.93;;
7475;SDS011;3779;49.216;8.650;2023-03-30T06:16:05;9.00;;;3.73;;
7475;SDS011;3779;49.216;8.650;2023-03-30T06:18:54;13.47;;;5.30;;
7475;SDS011;3779;49.216;8.650;2023-03-30T14:27:38;1.63;;;1.10;;
7475;SDS011;3779;49.216;8.650;2023-03-30T16:20:23;3.23;;;1.30;;
7475;SDS011;3779;49.216;8.650;2023-03-30T16:24:10;3.33;;;1.37;;
7475;SDS011;3779;49.216;8.650;2023-03-30T16:27:12;4.27;;;1.37;;
7475;SDS011;3779;49.216;8.650;2023-03-30T16:31:58;4.37;;;1.60;;
7475;SDS011;3779;49.216;8.650;2023-03-30T16:34:48;2.00;;;1.23;;
7475;SDS011;3779;49.216;8.650;2023-03-30T16:37:40;2.00;;;1.13;;
7475;SDS011;3779;49.216;8.650;2023-03-30T16:42:04;2.33;;;0.93;;
7475;SDS011;3779;49.216;8.650;2023-03-30T22:18:52;5.03;;;1.70;;
7475;SDS011;3779;49.216;8.650;2023-03-30T22:22:10;2.93;;;1.60;;
7475;SDS011;3779;49.216;8.650;2023-03-30T23:47:12;6.70;;;1.97;;
7475;SDS011;3779;49.216;8.650;2023-03-30T23:50:05;5.13;;;2.20;;
